RJTA(METAR)
06/26 15:00
METAR RJTA 260600Z 18009KT 140V210 9999 FEW030 BKN200 25/19 Q1007
RMK 1CU030 A2975=
戻る
トップページへ戻る
IMOC Co,.Ltd.